SKYFL11 KBLH-KBLH

Flight info

Callsign SKYFL11
Flight time 0h 36m
Altitude 12500
Route DCT
Aircraft A400/M-SDE3FGHIRWY/LB1

Departure

Time 2026-04-12 19:10
Airport Blythe Airport (KBLH)

Arrival

Time 2026-04-12 19:46
Airport Blythe Airport (KBLH)
Time Latitude Longitude Altitude Speed Heading
2026-04-12 18:54 33.61471 -114.71276 412 ft 0 kts 190°
2026-04-12 19:05 33.61465 -114.71282 411 ft 1 kts 220°
2026-04-12 19:05 33.61462 -114.71297 412 ft 3 kts 263°
2026-04-12 19:06 33.61468 -114.71312 413 ft 0 kts 301°
2026-04-12 19:06 33.61468 -114.71313 413 ft 1 kts 301°
2026-04-12 19:06 33.61488 -114.71323 406 ft 5 kts 356°
2026-04-12 19:06 33.61515 -114.71270 413 ft 11 kts 83°
2026-04-12 19:07 33.61516 -114.71156 412 ft 16 kts 90°
2026-04-12 19:07 33.61515 -114.71007 410 ft 19 kts 91°
2026-04-12 19:07 33.61514 -114.70843 411 ft 19 kts 89°
2026-04-12 19:07 33.61531 -114.70688 413 ft 16 kts 64°
2026-04-12 19:08 33.61561 -114.70638 408 ft 0 kts 41°
2026-04-12 19:09 33.61569 -114.70631 413 ft 5 kts 29°
2026-04-12 19:09 33.61624 -114.70639 413 ft 11 kts 339°
2026-04-12 19:09 33.61654 -114.70674 413 ft 5 kts 275°
2026-04-12 19:09 33.61654 -114.70683 413 ft 0 kts 269°
2026-04-12 19:10 33.61654 -114.71005 410 ft 105 kts 271°
2026-04-12 19:10 33.61661 -114.72312 520 ft 195 kts 268°
2026-04-12 19:10 33.61697 -114.74047 1336 ft 210 kts 269°
2026-04-12 19:10 33.61732 -114.75786 2655 ft 211 kts 269°
2026-04-12 19:11 33.61754 -114.77621 3916 ft 231 kts 268°
2026-04-12 19:11 33.61772 -114.79608 5181 ft 243 kts 268°
2026-04-12 19:11 33.61796 -114.81689 6485 ft 253 kts 266°
2026-04-12 19:11 33.61689 -114.83812 7780 ft 256 kts 254°
2026-04-12 19:12 33.60895 -114.85687 9179 ft 253 kts 227°
2026-04-12 19:12 33.59464 -114.86855 10557 ft 257 kts 202°
2026-04-12 19:12 33.57649 -114.87135 11609 ft 273 kts 181°
2026-04-12 19:12 33.55752 -114.86710 12224 ft 282 kts 172°
2026-04-12 19:13 33.53839 -114.86093 12476 ft 285 kts 171°
2026-04-12 19:13 33.51933 -114.85428 12491 ft 288 kts 167°
2026-04-12 19:13 33.50203 -114.84137 12490 ft 303 kts 142°
2026-04-12 19:13 33.49014 -114.81987 12490 ft 318 kts 118°
2026-04-12 19:14 33.48621 -114.79339 12490 ft 331 kts 93°
2026-04-12 19:14 33.49123 -114.76633 12494 ft 338 kts 69°
2026-04-12 19:14 33.50444 -114.74306 12497 ft 340 kts 47°
2026-04-12 19:14 33.52165 -114.72351 12498 ft 340 kts 41°
2026-04-12 19:15 33.53933 -114.70480 12498 ft 339 kts 40°
2026-04-12 19:15 33.55708 -114.68613 12498 ft 339 kts 40°
2026-04-12 19:15 33.57460 -114.66770 12498 ft 339 kts 40°
2026-04-12 19:15 33.59255 -114.64940 12494 ft 339 kts 34°
2026-04-12 19:16 33.61364 -114.63761 12499 ft 332 kts 10°
2026-04-12 19:16 33.63622 -114.63643 12497 ft 321 kts 345°
2026-04-12 19:16 33.65652 -114.64565 12500 ft 306 kts 320°
2026-04-12 19:16 33.67108 -114.66314 12502 ft 291 kts 296°
2026-04-12 19:17 33.67761 -114.68530 12505 ft 278 kts 271°
2026-04-12 19:17 33.67526 -114.70774 12502 ft 270 kts 248°
2026-04-12 19:17 33.66763 -114.72821 12495 ft 268 kts 241°
2026-04-12 19:17 33.65908 -114.74810 12493 ft 268 kts 240°
2026-04-12 19:18 33.65334 -114.76118 12486 ft 268 kts 240°
2026-04-12 19:18 33.64460 -114.78094 12491 ft 268 kts 240°
2026-04-12 19:18 33.63585 -114.80068 12501 ft 267 kts 240°
2026-04-12 19:18 33.62700 -114.82026 12496 ft 267 kts 237°
2026-04-12 19:19 33.61397 -114.83586 12495 ft 268 kts 213°
2026-04-12 19:19 33.59607 -114.84243 12498 ft 276 kts 188°
2026-04-12 19:19 33.57688 -114.83838 12495 ft 290 kts 163°
2026-04-12 19:19 33.56019 -114.82400 12494 ft 305 kts 139°
2026-04-12 19:20 33.54942 -114.80152 12500 ft 320 kts 114°
2026-04-12 19:20 33.54642 -114.77479 12502 ft 330 kts 95°
2026-04-12 19:20 33.54736 -114.74722 12501 ft 332 kts 91°
2026-04-12 19:20 33.54885 -114.71966 12500 ft 331 kts 90°
2026-04-12 19:21 33.55040 -114.69209 12498 ft 331 kts 90°
2026-04-12 19:21 33.55195 -114.66452 12498 ft 331 kts 90°
2026-04-12 19:21 33.55446 -114.63705 12494 ft 335 kts 79°
2026-04-12 19:21 33.56424 -114.61158 12496 ft 339 kts 55°
2026-04-12 19:22 33.58131 -114.59234 12496 ft 338 kts 30°
2026-04-12 19:22 33.60263 -114.58241 12498 ft 331 kts
2026-04-12 19:22 33.62527 -114.58331 12704 ft 327 kts 339°
2026-04-12 19:22 33.64531 -114.59559 13669 ft 320 kts 313°
2026-04-12 19:23 33.65872 -114.61537 15113 ft 297 kts 294°
2026-04-12 19:23 33.66860 -114.63690 16390 ft 295 kts 291°
2026-04-12 19:23 33.67813 -114.65875 17142 ft 296 kts 290°
2026-04-12 19:23 33.68779 -114.68072 17457 ft 298 kts 290°
2026-04-12 19:24 33.69746 -114.70273 17500 ft 297 kts 289°
2026-04-12 19:24 33.70259 -114.72598 17496 ft 283 kts 267°
2026-04-12 19:24 33.69875 -114.74857 17497 ft 276 kts 244°
2026-04-12 19:24 33.68682 -114.76642 17495 ft 279 kts 221°
2026-04-12 19:25 33.66900 -114.77611 17497 ft 290 kts 198°
2026-04-12 19:25 33.64836 -114.77553 17477 ft 308 kts 175°
2026-04-12 19:25 33.62838 -114.76442 17497 ft 326 kts 155°
2026-04-12 19:25 33.60992 -114.74809 17500 ft 331 kts 151°
2026-04-12 19:26 33.59174 -114.73100 17500 ft 331 kts 150°
2026-04-12 19:26 33.57362 -114.71389 17496 ft 332 kts 150°
2026-04-12 19:26 33.55550 -114.69680 17499 ft 332 kts 150°
2026-04-12 19:26 33.53740 -114.67971 17502 ft 331 kts 150°
2026-04-12 19:27 33.51990 -114.66301 17487 ft 311 kts 150°
2026-04-12 19:27 33.50364 -114.64713 17485 ft 293 kts 150°
2026-04-12 19:27 33.48837 -114.63199 17486 ft 286 kts 150°
2026-04-12 19:27 33.47319 -114.61685 17487 ft 283 kts 150°
2026-04-12 19:28 33.45760 -114.60308 17484 ft 270 kts 165°
2026-04-12 19:28 33.44028 -114.59839 17485 ft 245 kts 192°
2026-04-12 19:28 33.42484 -114.60429 17484 ft 228 kts 220°
2026-04-12 19:28 33.41506 -114.61857 17485 ft 223 kts 248°
2026-04-12 19:29 33.41356 -114.63713 17484 ft 233 kts 275°
2026-04-12 19:29 33.42107 -114.65488 17491 ft 252 kts 303°
2026-04-12 19:29 33.43606 -114.66722 17492 ft 271 kts 324°
2026-04-12 19:29 33.45318 -114.67690 17490 ft 273 kts 324°
2026-04-12 19:30 33.47041 -114.68661 17492 ft 273 kts 324°
2026-04-12 19:30 33.48761 -114.69627 17492 ft 274 kts 324°
2026-04-12 19:30 33.50466 -114.70584 17497 ft 274 kts 324°
2026-04-12 19:30 33.52195 -114.71551 17498 ft 274 kts 324°
2026-04-12 19:31 33.53923 -114.72517 17499 ft 274 kts 324°
2026-04-12 19:31 33.55651 -114.73480 17499 ft 274 kts 324°
2026-04-12 19:31 33.57379 -114.74445 17499 ft 274 kts 324°
2026-04-12 19:31 33.59106 -114.75414 17500 ft 274 kts 324°
2026-04-12 19:32 33.60832 -114.76383 17495 ft 274 kts 324°
2026-04-12 19:32 33.62562 -114.77351 17502 ft 274 kts 324°
2026-04-12 19:32 33.64292 -114.78320 17501 ft 274 kts 324°
2026-04-12 19:32 33.66000 -114.79277 17512 ft 275 kts 324°
2026-04-12 19:33 33.67743 -114.80250 17411 ft 277 kts 324°
2026-04-12 19:33 33.69493 -114.81231 16962 ft 279 kts 324°
2026-04-12 19:33 33.71267 -114.82242 16425 ft 284 kts 324°
2026-04-12 19:33 33.73055 -114.83279 15902 ft 287 kts 324°
2026-04-12 19:34 33.74753 -114.84499 15372 ft 278 kts 309°
2026-04-12 19:34 33.75808 -114.86324 14847 ft 261 kts 283°
2026-04-12 19:34 33.75993 -114.88435 14348 ft 256 kts 257°
2026-04-12 19:34 33.75279 -114.90405 13860 ft 262 kts 232°
2026-04-12 19:35 33.73833 -114.91750 13361 ft 269 kts 207°
2026-04-12 19:35 33.71971 -114.92139 12846 ft 279 kts 182°
2026-04-12 19:35 33.70091 -114.91539 12333 ft 288 kts 164°
2026-04-12 19:35 33.68270 -114.90542 11839 ft 287 kts 161°
2026-04-12 19:36 33.66472 -114.89506 11341 ft 285 kts 160°
2026-04-12 19:36 33.64692 -114.88487 10853 ft 282 kts 160°
2026-04-12 19:36 33.62924 -114.87485 10367 ft 279 kts 160°
2026-04-12 19:36 33.61169 -114.86504 9878 ft 278 kts 160°
2026-04-12 19:37 33.59419 -114.85537 9365 ft 276 kts 160°
2026-04-12 19:37 33.57680 -114.84584 8843 ft 273 kts 160°
2026-04-12 19:37 33.55958 -114.83643 8544 ft 271 kts 160°
2026-04-12 19:37 33.54242 -114.82712 8498 ft 271 kts 160°
2026-04-12 19:38 33.52521 -114.81780 8495 ft 272 kts 160°
2026-04-12 19:38 33.50798 -114.80848 8497 ft 271 kts 160°
2026-04-12 19:38 33.49079 -114.79920 8495 ft 271 kts 160°
2026-04-12 19:38 33.47397 -114.78873 8483 ft 277 kts 149°
2026-04-12 19:39 33.46142 -114.77069 8490 ft 290 kts 121°
2026-04-12 19:39 33.45810 -114.74657 8079 ft 302 kts 86°
2026-04-12 19:39 33.46249 -114.73081 7734 ft 304 kts 63°
2026-04-12 19:39 33.48348 -114.70956 7119 ft 297 kts 18°
2026-04-12 19:40 33.50348 -114.70707 6593 ft 288 kts 348°
2026-04-12 19:40 33.52162 -114.71577 5972 ft 278 kts 319°
2026-04-12 19:40 33.53155 -114.73403 5479 ft 256 kts 277°
2026-04-12 19:40 33.52824 -114.75401 4806 ft 250 kts 237°
2026-04-12 19:41 33.51424 -114.76603 4080 ft 258 kts 197°
2026-04-12 19:41 33.49640 -114.76351 3389 ft 272 kts 157°
2026-04-12 19:41 33.48449 -114.74587 2826 ft 284 kts 106°
2026-04-12 19:41 33.48692 -114.72346 2503 ft 279 kts 60°
2026-04-12 19:42 33.50069 -114.70867 2314 ft 261 kts 19°
2026-04-12 19:42 33.51773 -114.70262 2151 ft 251 kts 11°
2026-04-12 19:42 33.53437 -114.69758 1942 ft 244 kts 12°
2026-04-12 19:43 33.56724 -114.68773 1635 ft 238 kts
2026-04-12 19:43 33.58346 -114.68279 1701 ft 241 kts 11°
2026-04-12 19:43 33.59912 -114.68033 1682 ft 219 kts 356°
2026-04-12 19:43 33.61394 -114.67983 1627 ft 209 kts 355°
2026-04-12 19:44 33.62841 -114.67925 1568 ft 207 kts 357°
2026-04-12 19:44 33.64271 -114.67902 1495 ft 206 kts 356°
2026-04-12 19:44 33.65695 -114.67894 1467 ft 206 kts 345°
2026-04-12 19:44 33.66755 -114.68683 1470 ft 169 kts 294°
2026-04-12 19:45 33.66956 -114.70044 1454 ft 169 kts 264°
2026-04-12 19:45 33.66640 -114.71177 1370 ft 128 kts 226°
2026-04-12 19:45 33.65884 -114.71612 1016 ft 140 kts 200°
2026-04-12 19:45 33.64998 -114.71623 770 ft 125 kts 181°
2026-04-12 19:46 33.64115 -114.71671 741 ft 138 kts 186°
2026-04-12 19:46 33.63277 -114.71674 475 ft 114 kts 180°
2026-04-12 19:46 33.62488 -114.71677 413 ft 94 kts 180°
2026-04-12 19:46 33.62028 -114.71680 414 ft 47 kts 180°
2026-04-12 19:47 33.61800 -114.71681 415 ft 22 kts 180°
2026-04-12 19:47 33.61681 -114.71682 414 ft 14 kts 180°
2026-04-12 19:47 33.61622 -114.71640 413 ft 10 kts 135°
2026-04-12 19:47 33.61566 -114.71573 417 ft 13 kts 134°
2026-04-12 19:48 33.61517 -114.71483 414 ft 14 kts 99°
2026-04-12 19:48 33.61516 -114.71357 411 ft 16 kts 90°
2026-04-12 19:48 33.61507 -114.71242 413 ft 8 kts 137°
2026-04-12 19:48 33.61458 -114.71240 407 ft 2 kts 189°
2026-04-12 19:49 33.61456 -114.71248 412 ft 1 kts 243°
2026-04-12 19:49 33.61457 -114.71253 412 ft 0 kts 271°